sensor_id;sensor_type;location;lat;lon;timestamp;pressure;altitude;pressure_sealevel;temperature;humidity
20424;BME280;10371;49.042;8.002;2022-07-29T00:00:26;99558.34;;;20.55;65.75
20424;BME280;10371;49.042;8.002;2022-07-29T00:01:27;99550.97;;;20.50;65.77
20424;BME280;10371;49.042;8.002;2022-07-29T00:02:27;99549.16;;;20.50;65.84
20424;BME280;10371;49.042;8.002;2022-07-29T00:03:28;99545.25;;;20.46;65.84
20424;BME280;10371;49.042;8.002;2022-07-29T00:04:28;99547.91;;;20.46;65.91
20424;BME280;10371;49.042;8.002;2022-07-29T00:05:28;99545.88;;;20.48;65.90
20424;BME280;10371;49.042;8.002;2022-07-29T00:06:29;99544.22;;;20.47;65.89
20424;BME280;10371;49.042;8.002;2022-07-29T00:07:30;99546.88;;;20.47;65.94
20424;BME280;10371;49.042;8.002;2022-07-29T00:08:30;99549.16;;;20.50;65.86
20424;BME280;10371;49.042;8.002;2022-07-29T00:09:31;99545.66;;;20.50;65.89
20424;BME280;10371;49.042;8.002;2022-07-29T00:10:32;99545.06;;;20.48;65.93
20424;BME280;10371;49.042;8.002;2022-07-29T00:11:32;99542.22;;;20.49;66.12
20424;BME280;10371;49.042;8.002;2022-07-29T00:12:33;99547.91;;;20.46;66.03
20424;BME280;10371;49.042;8.002;2022-07-29T00:13:33;99543.88;;;20.50;66.28
20424;BME280;10371;49.042;8.002;2022-07-29T00:14:34;99550.16;;;20.49;66.41
20424;BME280;10371;49.042;8.002;2022-07-29T00:15:34;99549.53;;;20.47;66.64
20424;BME280;10371;49.042;8.002;2022-07-29T00:16:34;99546.69;;;20.49;66.38
20424;BME280;10371;49.042;8.002;2022-07-29T00:17:35;99550.53;;;20.46;66.67
20424;BME280;10371;49.042;8.002;2022-07-29T00:18:35;99545.25;;;20.46;66.58
20424;BME280;10371;49.042;8.002;2022-07-29T00:19:36;99549.16;;;20.50;66.68
20424;BME280;10371;49.042;8.002;2022-07-29T00:20:36;99550.59;;;20.53;66.52
20424;BME280;10371;49.042;8.002;2022-07-29T00:21:36;99548.53;;;20.48;66.93
20424;BME280;10371;49.042;8.002;2022-07-29T00:22:38;99549.53;;;20.47;66.94
20424;BME280;10371;49.042;8.002;2022-07-29T00:23:38;99547.50;;;20.49;67.15
20424;BME280;10371;49.042;8.002;2022-07-29T00:24:38;99548.31;;;20.50;67.21
20424;BME280;10371;49.042;8.002;2022-07-29T00:25:39;99543.03;;;20.50;67.27
20424;BME280;10371;49.042;8.002;2022-07-29T00:26:39;99546.16;;;20.53;67.31
20424;BME280;10371;49.042;8.002;2022-07-29T00:27:39;99543.50;;;20.53;67.58
20424;BME280;10371;49.042;8.002;2022-07-29T00:28:40;99537.19;;;20.55;67.66
20424;BME280;10371;49.042;8.002;2022-07-29T00:29:40;99541.22;;;20.50;67.95
20424;BME280;10371;49.042;8.002;2022-07-29T00:30:40;99537.13;;;20.48;68.15
20424;BME280;10371;49.042;8.002;2022-07-29T00:31:42;99539.97;;;20.46;68.20
20424;BME280;10371;49.042;8.002;2022-07-29T00:32:43;99540.78;;;20.47;68.12
20424;BME280;10371;49.042;8.002;2022-07-29T00:33:43;99532.66;;;20.48;67.95
20424;BME280;10371;49.042;8.002;2022-07-29T00:34:43;99535.94;;;20.50;67.85
20424;BME280;10371;49.042;8.002;2022-07-29T00:36:02;99537.94;;;20.48;67.92
20424;BME280;10371;49.042;8.002;2022-07-29T00:37:03;99537.72;;;20.50;67.88
20424;BME280;10371;49.042;8.002;2022-07-29T00:38:03;99533.28;;;20.50;67.72
20424;BME280;10371;49.042;8.002;2022-07-29T00:39:03;99536.75;;;20.51;67.78
20424;BME280;10371;49.042;8.002;2022-07-29T00:40:04;99532.25;;;20.51;67.83
20424;BME280;10371;49.042;8.002;2022-07-29T00:41:05;99530.66;;;20.50;67.87
20424;BME280;10371;49.042;8.002;2022-07-29T00:42:05;99530.81;;;20.49;67.64
20424;BME280;10371;49.042;8.002;2022-07-29T00:43:05;99528.56;;;20.46;67.76
20424;BME280;10371;49.042;8.002;2022-07-29T00:44:06;99528.16;;;20.42;67.74
20424;BME280;10371;49.042;8.002;2022-07-29T00:45:06;99522.47;;;20.45;67.77
20424;BME280;10371;49.042;8.002;2022-07-29T00:46:07;99517.38;;;20.44;67.88
20424;BME280;10371;49.042;8.002;2022-07-29T00:47:08;99523.69;;;20.43;67.85
20424;BME280;10371;49.042;8.002;2022-07-29T00:48:09;99521.59;;;20.38;67.90
20424;BME280;10371;49.042;8.002;2022-07-29T00:49:09;99522.63;;;20.37;68.10
20424;BME280;10371;49.042;8.002;2022-07-29T00:50:11;99519.34;;;20.35;68.21
20424;BME280;10371;49.042;8.002;2022-07-29T00:51:12;99525.66;;;20.34;68.27
20424;BME280;10371;49.042;8.002;2022-07-29T00:52:12;99516.09;;;20.33;68.53
20424;BME280;10371;49.042;8.002;2022-07-29T00:53:13;99519.75;;;20.32;68.55
20424;BME280;10371;49.042;8.002;2022-07-29T00:54:14;99516.28;;;20.31;68.58
20424;BME280;10371;49.042;8.002;2022-07-29T00:55:15;99523.59;;;20.29;68.72
20424;BME280;10371;49.042;8.002;2022-07-29T00:56:16;99527.44;;;20.27;68.90
20424;BME280;10371;49.042;8.002;2022-07-29T00:57:16;99524.78;;;20.27;69.06
20424;BME280;10371;49.042;8.002;2022-07-29T00:58:17;99519.09;;;20.23;69.08
20424;BME280;10371;49.042;8.002;2022-07-29T00:59:17;99528.84;;;20.23;69.28
20424;BME280;10371;49.042;8.002;2022-07-29T01:00:21;99525.97;;;20.18;69.48
20424;BME280;10371;49.042;8.002;2022-07-29T01:01:21;99526.34;;;20.15;70.06
20424;BME280;10371;49.042;8.002;2022-07-29T01:02:22;99524.28;;;20.10;70.22
20424;BME280;10371;49.042;8.002;2022-07-29T01:03:22;99523.47;;;20.09;70.76
20424;BME280;10371;49.042;8.002;2022-07-29T01:04:22;99518.97;;;20.03;71.05
20424;BME280;10371;49.042;8.002;2022-07-29T01:05:24;99532.19;;;20.03;71.42
20424;BME280;10371;49.042;8.002;2022-07-29T01:06:26;99522.16;;;19.99;71.39
20424;BME280;10371;49.042;8.002;2022-07-29T01:07:27;99530.72;;;20.01;71.70
20424;BME280;10371;49.042;8.002;2022-07-29T01:08:28;99529.28;;;19.98;71.80
20424;BME280;10371;49.042;8.002;2022-07-29T01:09:31;99527.63;;;19.97;71.96
20424;BME280;10371;49.042;8.002;2022-07-29T01:10:33;99529.84;;;19.94;72.22
20424;BME280;10371;49.042;8.002;2022-07-29T01:11:38;99530.41;;;19.89;72.59
20424;BME280;10371;49.042;8.002;2022-07-29T01:12:39;99530.19;;;19.84;72.92
20424;BME280;10371;49.042;8.002;2022-07-29T01:13:41;99528.13;;;19.79;73.31
20424;BME280;10371;49.042;8.002;2022-07-29T01:14:42;99532.97;;;19.76;73.47
20424;BME280;10371;49.042;8.002;2022-07-29T01:15:46;99533.34;;;19.73;73.76
20424;BME280;10371;49.042;8.002;2022-07-29T01:16:54;99534.94;;;19.67;73.88
20424;BME280;10371;49.042;8.002;2022-07-29T01:19:26;99530.69;;;19.51;74.49
20424;BME280;10371;49.042;8.002;2022-07-29T01:20:48;99532.06;;;19.47;74.91
20424;BME280;10371;49.042;8.002;2022-07-29T01:21:57;99534.47;;;19.42;75.18
20424;BME280;10371;49.042;8.002;2022-07-29T01:29:32;99526.25;;;19.15;77.85
20424;BME280;10371;49.042;8.002;2022-07-29T01:30:38;99527.06;;;19.16;77.96
20424;BME280;10371;49.042;8.002;2022-07-29T01:32:54;99525.13;;;19.25;78.32
20424;BME280;10371;49.042;8.002;2022-07-29T01:33:58;99520.69;;;19.25;78.21
20424;BME280;10371;49.042;8.002;2022-07-29T01:35:08;99529.03;;;19.29;78.35
20424;BME280;10371;49.042;8.002;2022-07-29T01:36:13;99526.19;;;19.30;78.18
20424;BME280;10371;49.042;8.002;2022-07-29T01:38:24;99522.88;;;19.43;77.63
20424;BME280;10371;49.042;8.002;2022-07-29T01:39:32;99527.78;;;19.46;77.52
20424;BME280;10371;49.042;8.002;2022-07-29T01:40:48;99528.44;;;19.48;77.33
20424;BME280;10371;49.042;8.002;2022-07-29T01:41:55;99517.47;;;19.51;76.95
20424;BME280;10371;49.042;8.002;2022-07-29T01:42:58;99527.84;;;19.53;76.72
20424;BME280;10371;49.042;8.002;2022-07-29T01:44:17;99523.56;;;19.52;76.49
20424;BME280;10371;49.042;8.002;2022-07-29T01:45:22;99529.66;;;19.52;76.38
20424;BME280;10371;49.042;8.002;2022-07-29T01:46:28;99526.41;;;19.50;76.50
20424;BME280;10371;49.042;8.002;2022-07-29T01:48:00;99529.66;;;19.52;76.06
20424;BME280;10371;49.042;8.002;2022-07-29T01:49:15;99516.94;;;19.56;75.95
20424;BME280;10371;49.042;8.002;2022-07-29T01:50:17;99523.81;;;19.57;75.59
20424;BME280;10371;49.042;8.002;2022-07-29T01:51:21;99518.94;;;19.54;75.78
20424;BME280;10371;49.042;8.002;2022-07-29T01:52:52;99526.41;;;19.50;75.70
20424;BME280;10371;49.042;8.002;2022-07-29T01:54:02;99526.78;;;19.47;75.78
20424;BME280;10371;49.042;8.002;2022-07-29T01:55:15;99522.72;;;19.45;75.92
20424;BME280;10371;49.042;8.002;2022-07-29T01:56:18;99523.06;;;19.41;76.31
20424;BME280;10371;49.042;8.002;2022-07-29T01:57:21;99516.97;;;19.41;76.11
20424;BME280;10371;49.042;8.002;2022-07-29T01:58:25;99531.56;;;19.37;76.10
20424;BME280;10371;49.042;8.002;2022-07-29T01:59:29;99525.66;;;19.35;76.23
20424;BME280;10371;49.042;8.002;2022-07-29T02:00:31;99529.31;;;19.34;76.19
20424;BME280;10371;49.042;8.002;2022-07-29T02:01:33;99530.50;;;19.31;76.46
20424;BME280;10371;49.042;8.002;2022-07-29T02:02:35;99531.47;;;19.30;76.59
20424;BME280;10371;49.042;8.002;2022-07-29T02:03:38;99531.84;;;19.27;76.45
20424;BME280;10371;49.042;8.002;2022-07-29T02:04:40;99533.06;;;19.25;76.69
20424;BME280;10371;49.042;8.002;2022-07-29T02:05:43;99528.16;;;19.22;76.95
20424;BME280;10371;49.042;8.002;2022-07-29T02:06:48;99532.81;;;19.19;76.79
20424;BME280;10371;49.042;8.002;2022-07-29T02:07:50;99529.72;;;19.16;77.10
20424;BME280;10371;49.042;8.002;2022-07-29T02:08:52;99535.19;;;19.14;76.96
20424;BME280;10371;49.042;8.002;2022-07-29T02:09:53;99528.47;;;19.12;77.03
20424;BME280;10371;49.042;8.002;2022-07-29T02:10:55;99526.19;;;19.09;77.29
20424;BME280;10371;49.042;8.002;2022-07-29T02:11:57;99528.00;;;19.08;77.38
20424;BME280;10371;49.042;8.002;2022-07-29T02:12:59;99524.09;;;19.04;77.48
20424;BME280;10371;49.042;8.002;2022-07-29T02:14:03;99530.56;;;19.02;77.69
20424;BME280;10371;49.042;8.002;2022-07-29T02:15:06;99530.94;;;18.98;77.59
20424;BME280;10371;49.042;8.002;2022-07-29T02:16:08;99529.31;;;18.97;77.93
20424;BME280;10371;49.042;8.002;2022-07-29T02:17:10;99526.22;;;18.94;77.98
20424;BME280;10371;49.042;8.002;2022-07-29T02:18:17;99527.22;;;18.93;77.97
20424;BME280;10371;49.042;8.002;2022-07-29T02:19:19;99531.88;;;18.91;78.17
20424;BME280;10371;49.042;8.002;2022-07-29T02:20:22;99526.78;;;18.89;78.54
20424;BME280;10371;49.042;8.002;2022-07-29T02:21:25;99529.97;;;18.85;78.52
20424;BME280;10371;49.042;8.002;2022-07-29T02:22:29;99529.31;;;18.83;78.64
20424;BME280;10371;49.042;8.002;2022-07-29T02:23:32;99535.63;;;18.82;78.96
20424;BME280;10371;49.042;8.002;2022-07-29T02:24:35;99530.06;;;18.77;78.85
20424;BME280;10371;49.042;8.002;2022-07-29T02:25:37;99538.19;;;18.75;79.11
20424;BME280;10371;49.042;8.002;2022-07-29T02:26:39;99527.13;;;18.71;79.21
20424;BME280;10371;49.042;8.002;2022-07-29T02:27:42;99528.97;;;18.71;79.50
20424;BME280;10371;49.042;8.002;2022-07-29T02:28:44;99527.69;;;18.67;79.58
20424;BME280;10371;49.042;8.002;2022-07-29T02:29:47;99533.97;;;18.66;79.61
20424;BME280;10371;49.042;8.002;2022-07-29T02:30:50;99536.16;;;18.62;79.79
20424;BME280;10371;49.042;8.002;2022-07-29T02:31:52;99533.69;;;18.61;80.06
20424;BME280;10371;49.042;8.002;2022-07-29T02:32:54;99528.59;;;18.59;80.16
20424;BME280;10371;49.042;8.002;2022-07-29T02:33:55;99535.06;;;18.57;80.34
20424;BME280;10371;49.042;8.002;2022-07-29T02:34:58;99534.63;;;18.53;80.12
20424;BME280;10371;49.042;8.002;2022-07-29T02:35:59;99531.34;;;18.51;80.34
20424;BME280;10371;49.042;8.002;2022-07-29T02:37:02;99533.16;;;18.50;80.53
20424;BME280;10371;49.042;8.002;2022-07-29T02:38:03;99530.69;;;18.49;80.29
20424;BME280;10371;49.042;8.002;2022-07-29T02:39:24;99538.97;;;18.46;80.20
20424;BME280;10371;49.042;8.002;2022-07-29T02:40:26;99533.06;;;18.44;80.28
20424;BME280;10371;49.042;8.002;2022-07-29T02:41:35;99531.44;;;18.43;80.32
20424;BME280;10371;49.042;8.002;2022-07-29T02:42:38;99530.78;;;18.41;80.38
20424;BME280;10371;49.042;8.002;2022-07-29T02:43:42;99529.16;;;18.40;80.45
20424;BME280;10371;49.042;8.002;2022-07-29T02:44:43;99532.97;;;18.37;80.57
20424;BME280;10371;49.042;8.002;2022-07-29T02:45:44;99533.97;;;18.36;80.60
20424;BME280;10371;49.042;8.002;2022-07-29T02:46:59;99540.44;;;18.34;80.63
20424;BME280;10371;49.042;8.002;2022-07-29T02:48:06;99539.78;;;18.31;80.89
20424;BME280;10371;49.042;8.002;2022-07-29T02:49:18;99541.13;;;18.27;80.87
20424;BME280;10371;49.042;8.002;2022-07-29T02:50:30;99545.78;;;18.25;81.11
20424;BME280;10371;49.042;8.002;2022-07-29T02:51:40;99544.50;;;18.21;81.24
20424;BME280;10371;49.042;8.002;2022-07-29T02:52:47;99549.31;;;18.18;81.63
20424;BME280;10371;49.042;8.002;2022-07-29T02:53:54;99548.84;;;18.14;81.70
20424;BME280;10371;49.042;8.002;2022-07-29T02:55:00;99544.75;;;18.12;82.01
20424;BME280;10371;49.042;8.002;2022-07-29T02:56:07;99548.38;;;18.11;82.42
20424;BME280;10371;49.042;8.002;2022-07-29T02:57:38;99550.56;;;18.07;82.50
20424;BME280;10371;49.042;8.002;2022-07-29T02:58:45;99551.94;;;18.03;82.61
20424;BME280;10371;49.042;8.002;2022-07-29T02:59:50;99554.09;;;17.99;82.61
20424;BME280;10371;49.042;8.002;2022-07-29T03:00:53;99555.09;;;17.98;82.72
20424;BME280;10371;49.042;8.002;2022-07-29T03:01:55;99551.34;;;17.93;82.57
20424;BME280;10371;49.042;8.002;2022-07-29T03:03:00;99553.53;;;17.89;82.77
20424;BME280;10371;49.042;8.002;2022-07-29T03:04:04;99551.25;;;17.86;82.91
20424;BME280;10371;49.042;8.002;2022-07-29T03:05:08;99548.97;;;17.83;83.12
20424;BME280;10371;49.042;8.002;2022-07-29T03:06:10;99543.88;;;17.81;82.72
20424;BME280;10371;49.042;8.002;2022-07-29T03:07:14;99542.53;;;17.77;82.94
20424;BME280;10371;49.042;8.002;2022-07-29T03:08:16;99541.72;;;17.77;82.72
20424;BME280;10371;49.042;8.002;2022-07-29T03:09:17;99548.81;;;17.76;82.76
20424;BME280;10371;49.042;8.002;2022-07-29T03:10:18;99546.38;;;17.75;82.96
20424;BME280;10371;49.042;8.002;2022-07-29T03:11:18;99551.16;;;17.71;82.94
20424;BME280;10371;49.042;8.002;2022-07-29T03:12:19;99548.53;;;17.71;82.97
20424;BME280;10371;49.042;8.002;2022-07-29T03:13:19;99554.97;;;17.69;83.16
20424;BME280;10371;49.042;8.002;2022-07-29T03:14:20;99560.41;;;17.67;83.37
20424;BME280;10371;49.042;8.002;2022-07-29T03:15:23;99556.13;;;17.66;83.42
20424;BME280;10371;49.042;8.002;2022-07-29T03:16:24;99552.88;;;17.64;83.37
20424;BME280;10371;49.042;8.002;2022-07-29T03:17:25;99549.59;;;17.62;83.56
20424;BME280;10371;49.042;8.002;2022-07-29T03:18:26;99555.03;;;17.60;83.22
20424;BME280;10371;49.042;8.002;2022-07-29T03:19:27;99554.56;;;17.57;83.39
20424;BME280;10371;49.042;8.002;2022-07-29T03:20:27;99551.28;;;17.55;83.36
20424;BME280;10371;49.042;8.002;2022-07-29T03:21:28;99550.66;;;17.53;83.49
20424;BME280;10371;49.042;8.002;2022-07-29T03:22:28;99556.91;;;17.52;83.48
20424;BME280;10371;49.042;8.002;2022-07-29T03:23:29;99558.91;;;17.50;83.53
20424;BME280;10371;49.042;8.002;2022-07-29T03:24:34;99550.34;;;17.48;83.47
20424;BME280;10371;49.042;8.002;2022-07-29T03:25:35;99562.06;;;17.45;83.61
20424;BME280;10371;49.042;8.002;2022-07-29T03:26:35;99562.22;;;17.43;83.55
20424;BME280;10371;49.042;8.002;2022-07-29T03:27:35;99555.97;;;17.45;83.63
20424;BME280;10371;49.042;8.002;2022-07-29T03:28:36;99559.59;;;17.43;83.62
20424;BME280;10371;49.042;8.002;2022-07-29T03:29:36;99551.69;;;17.43;83.59
20424;BME280;10371;49.042;8.002;2022-07-29T03:30:36;99555.47;;;17.41;83.68
20424;BME280;10371;49.042;8.002;2022-07-29T03:31:37;99556.31;;;17.41;83.69
20424;BME280;10371;49.042;8.002;2022-07-29T03:32:39;99563.56;;;17.39;83.86
20424;BME280;10371;49.042;8.002;2022-07-29T03:33:40;99560.94;;;17.39;84.09
20424;BME280;10371;49.042;8.002;2022-07-29T03:34:40;99557.84;;;17.36;84.30
20424;BME280;10371;49.042;8.002;2022-07-29T03:35:40;99559.81;;;17.34;84.50
20424;BME280;10371;49.042;8.002;2022-07-29T03:36:41;99562.00;;;17.30;84.69
20424;BME280;10371;49.042;8.002;2022-07-29T03:37:41;99558.69;;;17.28;84.77
20424;BME280;10371;49.042;8.002;2022-07-29T03:38:42;99560.69;;;17.26;84.90
20424;BME280;10371;49.042;8.002;2022-07-29T03:39:45;99559.41;;;17.22;84.65
20424;BME280;10371;49.042;8.002;2022-07-29T03:41:15;99565.00;;;17.19;84.80
20424;BME280;10371;49.042;8.002;2022-07-29T03:42:19;99561.06;;;17.15;84.67
20424;BME280;10371;49.042;8.002;2022-07-29T03:43:22;99560.25;;;17.14;84.87
20424;BME280;10371;49.042;8.002;2022-07-29T03:44:25;99557.78;;;17.13;84.84
20424;BME280;10371;49.042;8.002;2022-07-29T03:45:26;99557.78;;;17.13;84.93
20424;BME280;10371;49.042;8.002;2022-07-29T03:46:29;99564.88;;;17.12;84.99
20424;BME280;10371;49.042;8.002;2022-07-29T03:47:31;99568.50;;;17.11;85.01
20424;BME280;10371;49.042;8.002;2022-07-29T03:48:34;99568.50;;;17.11;85.02
20424;BME280;10371;49.042;8.002;2022-07-29T03:49:37;99567.84;;;17.09;85.08
20424;BME280;10371;49.042;8.002;2022-07-29T03:50:39;99569.66;;;17.09;85.31
20424;BME280;10371;49.042;8.002;2022-07-29T03:51:39;99569.66;;;17.09;84.94
20424;BME280;10371;49.042;8.002;2022-07-29T03:52:40;99567.38;;;17.06;85.17
20424;BME280;10371;49.042;8.002;2022-07-29T03:53:40;99570.81;;;17.06;85.56
20424;BME280;10371;49.042;8.002;2022-07-29T03:54:41;99569.00;;;17.07;85.41
20424;BME280;10371;49.042;8.002;2022-07-29T03:55:45;99568.19;;;17.06;85.71
20424;BME280;10371;49.042;8.002;2022-07-29T03:56:48;99576.91;;;17.07;85.69
20424;BME280;10371;49.042;8.002;2022-07-29T03:57:49;99570.00;;;17.06;85.79
20424;BME280;10371;49.042;8.002;2022-07-29T03:58:51;99566.56;;;17.05;86.08
20424;BME280;10371;49.042;8.002;2022-07-29T03:59:53;99571.97;;;17.04;86.26
20424;BME280;10371;49.042;8.002;2022-07-29T04:00:54;99567.88;;;17.01;86.66
20424;BME280;10371;49.042;8.002;2022-07-29T04:01:55;99567.22;;;16.99;86.98
20424;BME280;10371;49.042;8.002;2022-07-29T04:02:57;99569.03;;;16.98;87.15
20424;BME280;10371;49.042;8.002;2022-07-29T04:03:57;99573.47;;;16.98;87.74
20424;BME280;10371;49.042;8.002;2022-07-29T04:04:58;99564.13;;;16.95;87.89
20424;BME280;10371;49.042;8.002;2022-07-29T04:06:05;99568.56;;;16.95;88.21
20424;BME280;10371;49.042;8.002;2022-07-29T04:07:11;99578.28;;;16.94;88.73
20424;BME280;10371;49.042;8.002;2022-07-29T04:08:12;99579.44;;;16.92;89.10
20424;BME280;10371;49.042;8.002;2022-07-29T04:09:12;99569.06;;;16.90;89.25
20424;BME280;10371;49.042;8.002;2022-07-29T04:10:14;99575.34;;;16.89;89.61
20424;BME280;10371;49.042;8.002;2022-07-29T04:11:15;99574.53;;;16.89;89.73
20424;BME280;10371;49.042;8.002;2022-07-29T04:12:15;99572.84;;;16.88;89.79
20424;BME280;10371;49.042;8.002;2022-07-29T04:13:16;99573.88;;;16.87;89.77
20424;BME280;10371;49.042;8.002;2022-07-29T04:14:16;99572.84;;;16.88;90.07
20424;BME280;10371;49.042;8.002;2022-07-29T04:15:16;99576.34;;;16.88;89.95
20424;BME280;10371;49.042;8.002;2022-07-29T04:16:17;99572.84;;;16.88;89.98
20424;BME280;10371;49.042;8.002;2022-07-29T04:17:17;99575.34;;;16.89;89.74
20424;BME280;10371;49.042;8.002;2022-07-29T04:18:17;99576.16;;;16.90;89.62
20424;BME280;10371;49.042;8.002;2022-07-29T04:19:17;99583.03;;;16.91;89.86
20424;BME280;10371;49.042;8.002;2022-07-29T04:20:18;99578.63;;;16.91;89.95
20424;BME280;10371;49.042;8.002;2022-07-29T04:21:18;99573.34;;;16.91;89.89
20424;BME280;10371;49.042;8.002;2022-07-29T04:22:18;99574.00;;;16.93;90.13
20424;BME280;10371;49.042;8.002;2022-07-29T04:23:18;99571.34;;;16.93;89.96
20424;BME280;10371;49.042;8.002;2022-07-29T04:24:19;99579.09;;;16.95;90.14
20424;BME280;10371;49.042;8.002;2022-07-29T04:25:19;99577.94;;;16.97;90.00
20424;BME280;10371;49.042;8.002;2022-07-29T04:26:20;99582.19;;;16.98;89.73
20424;BME280;10371;49.042;8.002;2022-07-29T04:27:20;99580.38;;;16.99;89.63
20424;BME280;10371;49.042;8.002;2022-07-29T04:28:20;99582.50;;;17.04;89.46
20424;BME280;10371;49.042;8.002;2022-07-29T04:29:21;99580.53;;;17.06;89.17
20424;BME280;10371;49.042;8.002;2022-07-29T04:30:21;99577.72;;;17.07;89.14
20424;BME280;10371;49.042;8.002;2022-07-29T04:31:21;99580.19;;;17.09;89.35
20424;BME280;10371;49.042;8.002;2022-07-29T04:32:22;99590.34;;;17.12;89.21
20424;BME280;10371;49.042;8.002;2022-07-29T04:33:22;99583.13;;;17.14;89.21
20424;BME280;10371;49.042;8.002;2022-07-29T04:34:22;99589.00;;;17.16;89.31
20424;BME280;10371;49.042;8.002;2022-07-29T04:35:23;99593.94;;;17.19;89.28
20424;BME280;10371;49.042;8.002;2022-07-29T04:36:23;99589.31;;;17.21;89.12
20424;BME280;10371;49.042;8.002;2022-07-29T04:37:23;99592.59;;;17.23;89.16
20424;BME280;10371;49.042;8.002;2022-07-29T04:38:24;99595.53;;;17.28;89.27
20424;BME280;10371;49.042;8.002;2022-07-29T04:39:25;99595.19;;;17.31;89.02
20424;BME280;10371;49.042;8.002;2022-07-29T04:40:25;99594.13;;;17.40;88.86
20424;BME280;10371;49.042;8.002;2022-07-29T04:41:26;99593.13;;;17.50;88.34
20424;BME280;10371;49.042;8.002;2022-07-29T04:42:26;99586.59;;;17.60;88.15
20424;BME280;10371;49.042;8.002;2022-07-29T04:43:26;99597.56;;;17.72;87.49
20424;BME280;10371;49.042;8.002;2022-07-29T04:44:26;99595.53;;;17.82;86.86
20424;BME280;10371;49.042;8.002;2022-07-29T04:45:28;99593.03;;;17.89;86.28
20424;BME280;10371;49.042;8.002;2022-07-29T04:46:28;99594.59;;;17.98;85.98
20424;BME280;10371;49.042;8.002;2022-07-29T04:47:29;99591.91;;;18.06;85.62
20424;BME280;10371;49.042;8.002;2022-07-29T04:48:29;99594.63;;;18.13;85.45
20424;BME280;10371;49.042;8.002;2022-07-29T04:49:29;99592.56;;;18.23;85.02
20424;BME280;10371;49.042;8.002;2022-07-29T04:50:30;99596.59;;;18.34;84.67
20424;BME280;10371;49.042;8.002;2022-07-29T04:51:30;99595.50;;;18.43;84.07
20424;BME280;10371;49.042;8.002;2022-07-29T04:52:30;99590.34;;;18.50;83.72
20424;BME280;10371;49.042;8.002;2022-07-29T04:53:31;99592.88;;;18.58;83.50
20424;BME280;10371;49.042;8.002;2022-07-29T04:54:32;99591.53;;;18.62;83.33
20424;BME280;10371;49.042;8.002;2022-07-29T04:55:33;99595.09;;;18.69;83.06
20424;BME280;10371;49.042;8.002;2022-07-29T04:56:33;99591.75;;;18.75;82.81
20424;BME280;10371;49.042;8.002;2022-07-29T04:57:34;99593.66;;;18.82;82.71
20424;BME280;10371;49.042;8.002;2022-07-29T04:58:35;99588.66;;;18.87;82.36
20424;BME280;10371;49.042;8.002;2022-07-29T04:59:35;99599.28;;;18.93;82.22
20424;BME280;10371;49.042;8.002;2022-07-29T05:00:35;99585.34;;;19.00;82.11
20424;BME280;10371;49.042;8.002;2022-07-29T05:01:36;99590.06;;;19.04;81.97
20424;BME280;10371;49.042;8.002;2022-07-29T05:02:36;99593.63;;;19.11;81.86
20424;BME280;10371;49.042;8.002;2022-07-29T05:03:36;99593.25;;;19.14;81.60
20424;BME280;10371;49.042;8.002;2022-07-29T05:04:37;99590.50;;;19.23;81.39
20424;BME280;10371;49.042;8.002;2022-07-29T05:05:37;99593.22;;;19.29;81.22
20424;BME280;10371;49.042;8.002;2022-07-29T05:06:38;99590.84;;;19.34;80.76
20424;BME280;10371;49.042;8.002;2022-07-29T05:07:38;99595.34;;;19.40;81.11
20424;BME280;10371;49.042;8.002;2022-07-29T05:08:38;99600.09;;;19.45;81.02
20424;BME280;10371;49.042;8.002;2022-07-29T05:09:39;99599.78;;;19.55;80.84
20424;BME280;10371;49.042;8.002;2022-07-29T05:10:39;99594.38;;;19.63;80.37
20424;BME280;10371;49.042;8.002;2022-07-29T05:11:40;99593.84;;;19.68;80.27
20424;BME280;10371;49.042;8.002;2022-07-29T05:12:40;99589.06;;;19.78;80.29
20424;BME280;10371;49.042;8.002;2022-07-29T05:13:40;99595.84;;;19.87;79.68
20424;BME280;10371;49.042;8.002;2022-07-29T05:14:40;99596.53;;;19.96;79.30
20424;BME280;10371;49.042;8.002;2022-07-29T05:15:41;99589.69;;;20.01;78.94
20424;BME280;10371;49.042;8.002;2022-07-29T05:16:41;99596.84;;;20.07;78.72
20424;BME280;10371;49.042;8.002;2022-07-29T05:17:41;99592.81;;;20.12;78.83
20424;BME280;10371;49.042;8.002;2022-07-29T05:18:42;99590.41;;;20.17;78.55
20424;BME280;10371;49.042;8.002;2022-07-29T05:19:42;99591.66;;;20.21;78.43
20424;BME280;10371;49.042;8.002;2022-07-29T05:20:42;99586.63;;;20.26;78.29
20424;BME280;10371;49.042;8.002;2022-07-29T05:21:44;99584.81;;;20.33;78.24
20424;BME280;10371;49.042;8.002;2022-07-29T05:22:44;99588.72;;;20.37;78.08
20424;BME280;10371;49.042;8.002;2022-07-29T05:23:45;99582.66;;;20.43;77.83
20424;BME280;10371;49.042;8.002;2022-07-29T05:24:45;99582.28;;;20.46;77.64
20424;BME280;10371;49.042;8.002;2022-07-29T05:25:46;99582.50;;;20.51;77.71
20424;BME280;10371;49.042;8.002;2022-07-29T05:26:46;99588.06;;;20.57;77.86
20424;BME280;10371;49.042;8.002;2022-07-29T05:27:46;99590.13;;;20.61;78.01
20424;BME280;10371;49.042;8.002;2022-07-29T05:28:47;99588.53;;;20.67;78.02
20424;BME280;10371;49.042;8.002;2022-07-29T05:29:47;99585.72;;;20.75;77.97
20424;BME280;10371;49.042;8.002;2022-07-29T05:30:47;99591.25;;;20.80;77.44
20424;BME280;10371;49.042;8.002;2022-07-29T05:31:48;99593.09;;;20.86;77.06
20424;BME280;10371;49.042;8.002;2022-07-29T05:32:48;99598.44;;;20.93;76.92
20424;BME280;10371;49.042;8.002;2022-07-29T05:33:49;99590.53;;;21.00;76.92
20424;BME280;10371;49.042;8.002;2022-07-29T05:34:49;99600.94;;;21.08;76.81
20424;BME280;10371;49.042;8.002;2022-07-29T05:35:49;99600.53;;;21.11;76.36
20424;BME280;10371;49.042;8.002;2022-07-29T05:36:50;99594.44;;;21.10;76.30
20424;BME280;10371;49.042;8.002;2022-07-29T05:37:50;99598.53;;;21.13;76.38
20424;BME280;10371;49.042;8.002;2022-07-29T05:38:51;99594.25;;;21.12;76.33
20424;BME280;10371;49.042;8.002;2022-07-29T05:39:52;99595.25;;;21.11;76.83
20424;BME280;10371;49.042;8.002;2022-07-29T05:40:52;99599.97;;;21.15;77.14